Dunlap, Kansas
Current Conditions -  °F | °C
As of 4:58 AM on Tuesday 21 Oct 2014 (Local Time) from KFRI Reporting Station
Haze Haze  
Wind Chill: 41°   Ceiling: Unl
Heat Index: 41°   Visibility: 6mi
Dew Point: 41°   Wind: 2mph
Humidity: 100%   Direction: 40°NE
Pressure: 30.1"   Gusts: NA
Location:  38.6824°N, 96.5126°W
Report Text: KFRI 210958Z AUTO 04002KT 6SM BR CLR 05/05 A3010 RMK AO2 SLP189 T00500050
Loading
Personal Weather Stations






























Interactive Weather Map
Tropical Storm Tracking
New forecast layout! Learn more

10-Day Weather Forecast

Advertisements
Track Severe Weather on mobile